Time;durP1;ratioP1;P1;durP2;ratioP2;P2;SDS_P1;SDS_P2;PMS_P1;PMS_P2;Temp;Humidity;BMP_temperature;BMP_pressure;BME280_temperature;BME280_humidity;BME280_pressure;Samples;Min_cycle;Max_cycle;Signal;HPM_P1;HPM_P2
2022/07/05 00:01:11;;;;;;;8.13;5.60;;;;;;;19.73;100.00;99555.40;1742703;82;20970;-63
2022/07/05 00:03:38;;;;;;;6.58;5.45;;;;;;;19.64;100.00;99552.69;1739665;82;21531;-63
2022/07/05 00:06:05;;;;;;;7.67;5.65;;;;;;;19.60;100.00;99555.88;1739274;82;21003;-64
2022/07/05 00:08:32;;;;;;;9.55;5.47;;;;;;;19.58;100.00;99549.89;1758096;80;21035;-63
2022/07/05 00:10:58;;;;;;;8.83;5.65;;;;;;;19.56;100.00;99556.88;1733832;80;20956;-63
2022/07/05 00:13:24;;;;;;;8.00;5.90;;;;;;;19.49;100.00;99557.41;1731016;82;21039;-63
2022/07/05 00:15:52;;;;;;;8.33;5.85;;;;;;;19.42;100.00;99564.03;1744874;82;20992;-63
2022/07/05 00:18:19;;;;;;;8.50;5.60;;;;;;;19.39;100.00;99552.25;1751892;80;21030;-63
2022/07/05 00:20:45;;;;;;;9.38;5.95;;;;;;;19.40;100.00;99564.92;1737515;82;21015;-63
2022/07/05 00:23:12;;;;;;;6.83;5.80;;;;;;;19.38;100.00;99558.91;1741291;82;21042;-63
2022/07/05 00:25:39;;;;;;;9.43;5.78;;;;;;;19.36;100.00;99557.88;1739474;80;21459;-63
2022/07/05 00:28:07;;;;;;;7.95;5.70;;;;;;;19.33;100.00;99558.55;1735199;82;21029;-63
2022/07/05 00:30:34;;;;;;;8.65;5.45;;;;;;;19.31;100.00;99557.25;1751862;80;20971;-63
2022/07/05 00:33:01;;;;;;;8.40;5.47;;;;;;;19.32;100.00;99555.55;1744474;82;21039;-63
2022/07/05 00:35:28;;;;;;;7.78;5.35;;;;;;;19.34;100.00;99561.53;1743544;82;21810;-63
2022/07/05 00:37:54;;;;;;;7.08;5.75;;;;;;;19.36;100.00;99562.59;1723662;82;21023;-63
2022/07/05 00:40:21;;;;;;;8.50;5.33;;;;;;;19.37;100.00;99560.89;1736597;80;20973;-63
2022/07/05 00:42:47;;;;;;;13.68;5.83;;;;;;;19.39;100.00;99563.30;1768375;80;21011;-63
2022/07/05 00:45:14;;;;;;;7.08;5.80;;;;;;;19.42;100.00;99567.36;1734275;82;20968;-63
2022/07/05 00:47:42;;;;;;;9.90;5.12;;;;;;;19.47;100.00;99562.47;1724067;82;21066;-63
2022/07/05 00:50:09;;;;;;;11.18;5.40;;;;;;;19.58;100.00;99561.51;1726967;82;20968;-63
2022/07/05 00:52:36;;;;;;;8.35;5.50;;;;;;;19.65;100.00;99564.55;1744200;80;20968;-63
2022/07/05 00:55:03;;;;;;;7.33;5.85;;;;;;;19.67;100.00;99559.48;1725678;82;21357;-64
2022/07/05 00:57:30;;;;;;;6.92;5.83;;;;;;;19.66;100.00;99562.81;1702019;82;21522;-63
2022/07/05 01:02:23;;;;;;;9.03;5.15;;;;;;;19.73;100.00;99562.30;1813842;78;23027;-61
2022/07/05 01:04:50;;;;;;;7.58;5.87;;;;;;;19.67;100.00;99569.14;1764010;79;21085;-64
2022/07/05 01:07:22;;;;;;;10.00;6.08;;;;;;;19.66;100.00;99569.72;1743544;81;21034;-63
2022/07/05 01:09:48;;;;;;;7.85;5.75;;;;;;;19.68;100.00;99562.48;1728851;81;21015;-63
2022/07/05 01:12:17;;;;;;;10.25;5.80;;;;;;;19.68;100.00;99563.87;1759217;81;21010;-64
2022/07/05 01:14:43;;;;;;;7.65;5.65;;;;;;;19.66;100.00;99563.41;1756222;80;21552;-64
2022/07/05 01:17:09;;;;;;;7.03;5.70;;;;;;;19.63;100.00;99559.91;1759647;81;21046;-64
2022/07/05 01:19:37;;;;;;;9.08;5.95;;;;;;;19.57;100.00;99559.88;1752798;81;21090;-64
2022/07/05 01:22:03;;;;;;;8.03;6.22;;;;;;;19.47;100.00;99563.04;1754834;81;21447;-64
2022/07/05 01:24:31;;;;;;;9.00;5.90;;;;;;;19.37;100.00;99566.41;1758042;80;21655;-64
2022/07/05 01:26:57;;;;;;;11.45;5.87;;;;;;;19.33;100.00;99560.50;1752538;81;21549;-64
2022/07/05 01:29:24;;;;;;;8.35;6.53;;;;;;;19.31;100.00;99562.20;1744603;80;21038;-64
2022/07/05 01:31:51;;;;;;;8.03;6.20;;;;;;;19.28;100.00;99554.59;1743597;81;21505;-64
2022/07/05 01:34:17;;;;;;;7.17;6.03;;;;;;;19.24;100.00;99564.67;1751326;80;21056;-65
2022/07/05 01:36:44;;;;;;;9.20;6.08;;;;;;;19.17;100.00;99566.33;1746337;81;21002;-64
2022/07/05 01:39:10;;;;;;;8.50;6.03;;;;;;;19.14;100.00;99564.24;1752399;81;21011;-64
2022/07/05 01:41:38;;;;;;;10.45;6.30;;;;;;;19.14;100.00;99565.05;1750865;80;20993;-63
2022/07/05 01:44:05;;;;;;;9.35;5.78;;;;;;;19.11;100.00;99565.72;1759957;80;21620;-65
2022/07/05 01:46:33;;;;;;;8.78;6.05;;;;;;;19.09;100.00;99563.07;1761186;81;20992;-64
2022/07/05 01:49:03;;;;;;;9.68;6.37;;;;;;;19.03;100.00;99572.08;1744007;81;21066;-64
2022/07/05 01:51:36;;;;;;;8.78;6.10;;;;;;;19.02;100.00;99567.73;1757966;81;21062;-64
2022/07/05 01:54:04;;;;;;;7.67;5.53;;;;;;;19.03;100.00;99570.70;1755210;80;21608;-64
2022/07/05 01:56:30;;;;;;;8.33;6.10;;;;;;;19.05;100.00;99571.20;1727647;81;20996;-64
2022/07/05 01:58:58;;;;;;;7.87;6.15;;;;;;;19.04;100.00;99567.37;1743181;81;21035;-64
2022/07/05 02:01:38;;;;;;;10.05;6.47;;;;;;;19.01;100.00;99568.86;1756096;81;21020;-64
2022/07/05 02:04:08;;;;;;;8.20;6.30;;;;;;;18.97;100.00;99573.41;1745294;81;21090;-64
2022/07/05 02:06:36;;;;;;;8.78;6.33;;;;;;;19.00;100.00;99575.51;1742897;81;21549;-64
2022/07/05 02:09:05;;;;;;;13.70;6.35;;;;;;;19.10;100.00;99572.94;1735029;81;21072;-64
2022/07/05 02:11:35;;;;;;;8.10;6.28;;;;;;;19.21;100.00;99574.19;1743395;81;20951;-64
2022/07/05 02:14:01;;;;;;;7.67;6.08;;;;;;;19.28;100.00;99568.39;1747199;81;21035;-64
2022/07/05 02:16:30;;;;;;;10.65;6.50;;;;;;;19.34;100.00;99571.19;1756484;81;21016;-63
2022/07/05 02:18:57;;;;;;;9.38;6.70;;;;;;;19.37;100.00;99569.17;1752410;81;21058;-64
2022/07/05 02:21:25;;;;;;;7.90;6.25;;;;;;;19.41;100.00;99574.02;1753770;81;21091;-64
2022/07/05 02:23:54;;;;;;;8.95;6.00;;;;;;;19.46;100.00;99576.03;1746134;80;21626;-64
2022/07/05 02:26:22;;;;;;;6.60;5.60;;;;;;;19.55;100.00;99566.33;1741387;80;21017;-64
2022/07/05 02:28:49;;;;;;;7.87;5.75;;;;;;;19.65;100.00;99568.69;1716880;81;21059;-64
2022/07/05 02:31:16;;;;;;;8.55;6.15;;;;;;;19.74;100.00;99566.66;1725432;82;21082;-64
2022/07/05 02:33:43;;;;;;;7.90;6.05;;;;;;;19.81;100.00;99565.55;1700537;82;21512;-64
2022/07/05 02:36:12;;;;;;;8.85;5.75;;;;;;;19.87;100.00;99565.60;1748665;81;21496;-64
2022/07/05 02:38:39;;;;;;;10.75;5.97;;;;;;;19.96;100.00;99566.90;1746474;80;21123;-64
2022/07/05 02:41:07;;;;;;;6.70;5.65;;;;;;;20.05;100.00;99572.58;1754329;81;21570;-63
2022/07/05 02:43:35;;;;;;;6.17;5.50;;;;;;;20.10;100.00;99574.33;1744256;80;21047;-64
2022/07/05 02:46:03;;;;;;;9.73;6.35;;;;;;;20.12;100.00;99581.13;1753305;82;21039;-64
2022/07/05 02:48:29;;;;;;;9.53;6.35;;;;;;;20.08;100.00;99577.45;1712486;82;21092;-64
2022/07/05 02:50:56;;;;;;;8.50;6.17;;;;;;;20.00;100.00;99579.70;1715062;82;21067;-63
2022/07/05 02:53:24;;;;;;;7.33;6.35;;;;;;;19.98;100.00;99588.11;1738306;81;21054;-64
2022/07/05 02:55:51;;;;;;;7.78;5.85;;;;;;;20.01;100.00;99594.33;1753839;82;20998;-64
2022/07/05 02:58:18;;;;;;;11.20;5.90;;;;;;;20.06;100.00;99589.40;1725055;80;20995;-64
2022/07/05 03:00:47;;;;;;;8.23;5.83;;;;;;;20.07;100.00;99584.12;1747565;81;21095;-64
2022/07/05 03:03:15;;;;;;;10.20;5.67;;;;;;;20.02;100.00;99581.55;1732835;80;21061;-63
2022/07/05 03:05:42;;;;;;;9.90;5.70;;;;;;;20.02;100.00;99589.02;1735409;81;20959;-64
2022/07/05 03:08:09;;;;;;;9.60;5.40;;;;;;;20.06;100.00;99584.44;1737124;81;21037;-64
2022/07/05 03:10:36;;;;;;;9.60;5.80;;;;;;;20.11;100.00;99583.68;1741972;82;21829;-64
2022/07/05 03:13:04;;;;;;;9.18;6.75;;;;;;;20.25;100.00;99595.83;1735983;81;21543;-64
2022/07/05 03:15:31;;;;;;;7.80;6.25;;;;;;;20.35;100.00;99600.97;1709458;82;21063;-64
2022/07/05 03:17:57;;;;;;;8.15;6.70;;;;;;;20.43;100.00;99592.36;1737486;80;21581;-64
2022/07/05 03:20:25;;;;;;;9.23;6.08;;;;;;;20.51;100.00;99592.85;1746644;82;20965;-63
2022/07/05 03:22:51;;;;;;;10.20;6.78;;;;;;;20.61;100.00;99591.03;1724658;81;21010;-62
2022/07/05 03:25:20;;;;;;;9.68;7.35;;;;;;;20.69;100.00;99593.69;1740854;82;21007;-63
2022/07/05 03:27:47;;;;;;;10.48;7.25;;;;;;;20.71;100.00;99596.94;1729198;81;21083;-63
2022/07/05 03:30:13;;;;;;;8.98;6.40;;;;;;;20.71;100.00;99592.80;1742664;81;20938;-63
2022/07/05 03:32:40;;;;;;;11.00;6.65;;;;;;;20.80;100.00;99592.68;1716296;82;21024;-63
2022/07/05 03:35:08;;;;;;;7.53;6.30;;;;;;;21.02;100.00;99598.37;1739559;82;20989;-63
2022/07/05 03:37:36;;;;;;;8.63;6.55;;;;;;;21.32;100.00;99599.82;1734086;82;21032;-63
2022/07/05 03:40:05;;;;;;;9.88;6.85;;;;;;;21.65;100.00;99596.89;1744102;81;21103;-63
2022/07/05 03:42:34;;;;;;;8.45;6.70;;;;;;;21.94;100.00;99593.87;1699868;81;21494;-63
2022/07/05 03:45:02;;;;;;;7.55;6.45;;;;;;;22.25;100.00;99588.45;1703263;83;21071;-63
2022/07/05 03:47:29;;;;;;;9.38;6.30;;;;;;;22.61;100.00;99593.02;1718085;82;21577;-63
2022/07/05 03:49:55;;;;;;;9.73;6.42;;;;;;;22.96;100.00;99583.46;1731756;81;21621;-63
2022/07/05 03:52:22;;;;;;;10.50;6.47;;;;;;;23.31;100.00;99584.34;1740064;81;21011;-63
2022/07/05 03:54:49;;;;;;;7.45;6.65;;;;;;;23.98;100.00;99570.44;1736956;81;21047;-63
2022/07/05 03:57:16;;;;;;;9.98;6.12;;;;;;;23.98;100.00;99570.44;1706215;82;21090;-63
2022/07/05 03:59:43;;;;;;;7.80;6.50;;;;;;;24.28;100.00;99566.72;1725725;80;21032;-63
2022/07/05 04:02:10;;;;;;;8.53;6.22;;;;;;;24.63;100.00;99551.29;1746054;82;21027;-64
2022/07/05 04:04:38;;;;;;;9.15;6.22;;;;;;;24.63;100.00;99551.29;1738343;80;21538;-63
2022/07/05 04:07:06;;;;;;;9.73;6.12;;;;;;;24.76;100.00;99554.11;1728427;82;21026;-63
2022/07/05 04:09:35;;;;;;;8.03;6.03;;;;;;;24.90;100.00;99550.83;1724156;82;21114;-64
2022/07/05 04:12:04;;;;;;;10.45;6.00;;;;;;;25.09;100.00;99549.34;1746439;82;21028;-64
2022/07/05 04:14:33;;;;;;;9.20;5.95;;;;;;;25.38;100.00;99545.61;1740946;80;21431;-63
2022/07/05 04:17:00;;;;;;;7.87;5.60;;;;;;;25.71;100.00;99545.75;1743416;81;21588;-64
2022/07/05 04:19:27;;;;;;;6.22;5.40;;;;;;;25.95;100.00;99528.53;1725073;82;21056;-63
2022/07/05 04:21:53;;;;;;;9.93;5.30;;;;;;;26.14;100.00;99526.99;1748562;81;21039;-64
2022/07/05 04:24:20;;;;;;;7.55;5.97;;;;;;;26.39;100.00;99527.89;1743018;81;22024;-64
2022/07/05 04:26:48;;;;;;;7.00;6.25;;;;;;;26.64;100.00;99536.71;1729913;81;21476;-64
2022/07/05 04:29:15;;;;;;;7.72;6.00;;;;;;;26.79;100.00;99525.09;1740750;81;21040;-63
2022/07/05 04:31:42;;;;;;;8.55;5.92;;;;;;;26.93;100.00;99525.25;1746571;82;21040;-64
2022/07/05 04:34:09;;;;;;;8.33;5.95;;;;;;;27.13;100.00;99533.62;1746246;80;21595;-63
2022/07/05 04:36:40;;;;;;;7.72;5.80;;;;;;;27.25;100.00;99531.09;1743283;81;21030;-63
2022/07/05 04:39:07;;;;;;;6.87;5.72;;;;;;;27.34;100.00;99523.78;1737462;80;21103;-64
2022/07/05 04:41:35;;;;;;;10.18;5.80;;;;;;;27.40;100.00;99530.59;1749083;81;21087;-63
2022/07/05 04:44:04;;;;;;;7.85;5.72;;;;;;;27.55;100.00;99526.74;1746026;80;21507;-64
2022/07/05 04:46:32;;;;;;;7.33;5.42;;;;;;;27.57;100.00;99528.53;1745942;81;21068;-64
2022/07/05 04:48:59;;;;;;;6.67;5.17;;;;;;;27.41;100.00;99528.83;1734584;81;21439;-63
2022/07/05 04:51:25;;;;;;;8.23;5.10;;;;;;;27.35;100.00;99536.57;1746240;82;21036;-63
2022/07/05 04:53:52;;;;;;;5.75;4.97;;;;;;;27.42;100.00;99537.39;1746049;80;21043;-64
2022/07/05 04:56:18;;;;;;;9.28;4.65;;;;;;;27.53;100.00;99529.91;1740562;81;20983;-63
2022/07/05 04:58:45;;;;;;;6.37;4.70;;;;;;;27.87;100.00;99536.11;1740370;80;21031;-63
2022/07/05 05:01:11;;;;;;;7.95;5.67;;;;;;;28.32;100.00;99533.91;1745179;81;21000;-63
2022/07/05 05:03:37;;;;;;;8.48;4.92;;;;;;;28.59;100.00;99531.77;1712300;82;21039;-63
2022/07/05 05:06:04;;;;;;;7.33;4.83;;;;;;;28.43;100.00;99532.75;1746733;81;20967;-64
2022/07/05 05:08:31;;;;;;;8.58;4.70;;;;;;;28.20;100.00;99546.88;1741172;80;21037;-64
2022/07/05 05:10:57;;;;;;;6.75;4.80;;;;;;;28.41;100.00;99540.72;1741939;80;21437;-64
2022/07/05 05:13:24;;;;;;;6.58;4.37;;;;;;;28.71;100.00;99541.03;1737843;80;21097;-63
2022/07/05 05:15:52;;;;;;;5.70;5.00;;;;;;;28.63;100.00;99534.58;1736906;81;20963;-64
2022/07/05 05:18:24;;;;;;;7.35;4.87;;;;;;;28.51;100.00;99541.38;1732944;81;21125;-64
2022/07/05 05:20:48;;;;;;;6.50;4.87;;;;;;;28.87;100.00;99542.86;1739156;81;21048;-67
2022/07/05 05:23:15;;;;;;;8.48;4.50;;;;;;;29.17;100.00;99546.06;1718377;81;21544;-67
2022/07/05 05:25:41;;;;;;;8.03;4.53;;;;;;;29.30;100.00;99553.52;1745562;81;20928;-66
2022/07/05 05:28:08;;;;;;;7.72;4.75;;;;;;;29.52;100.00;99555.06;1743967;80;21082;-67
2022/07/05 05:30:34;;;;;;;8.48;5.28;;;;;;;29.77;100.00;99555.82;1742079;81;21483;-68
2022/07/05 05:33:01;;;;;;;7.87;4.87;;;;;;;30.11;100.00;99551.95;1715879;81;21928;-68
2022/07/05 05:35:28;;;;;;;6.97;4.58;;;;;;;30.35;100.00;99558.05;1727577;82;21449;-65
2022/07/05 05:37:55;;;;;;;5.97;4.40;;;;;;;30.73;100.00;99552.63;1729695;81;21003;-68
2022/07/05 05:40:23;;;;;;;11.22;4.85;;;;;;;30.91;100.00;99551.30;1729814;82;20977;-67
2022/07/05 05:42:50;;;;;;;5.92;4.40;;;;;;;30.84;100.00;99550.55;1731912;81;21517;-65
2022/07/05 05:45:16;;;;;;;7.22;4.25;;;;;;;31.01;100.00;99557.48;1741607;82;20930;-66
2022/07/05 05:47:52;;;;;;;6.53;4.22;;;;;;;31.22;100.00;99543.05;1717422;81;21014;-66
2022/07/05 05:50:26;;;;;;;7.37;4.12;;;;;;;31.60;100.00;99548.16;1740951;82;20962;-66
2022/07/05 05:52:53;;;;;;;5.80;4.20;;;;;;;31.82;100.00;99541.86;1722605;80;21010;-66
2022/07/05 05:55:21;;;;;;;4.92;4.42;;;;;;;31.67;100.00;99544.67;1723964;81;21514;-66
2022/07/05 05:57:48;;;;;;;8.90;4.33;;;;;;;31.76;100.00;99542.74;1746938;81;21067;-66
2022/07/05 06:00:15;;;;;;;9.25;4.37;;;;;;;31.97;100.00;99540.48;1743918;82;20947;-66
2022/07/05 06:02:42;;;;;;;6.87;4.00;;;;;;;32.14;100.00;99544.94;1733093;80;21003;-65
2022/07/05 06:05:09;;;;;;;6.28;3.92;;;;;;;32.52;97.00;99543.63;1738840;81;20979;-65
2022/07/05 06:07:48;;;;;;;7.12;3.85;;;;;;;32.91;90.70;99534.63;1707530;82;21165;-65
2022/07/05 06:10:27;;;;;;;10.25;3.87;;;;;;;33.29;90.61;99546.50;1718102;82;21832;-67
2022/07/05 06:12:55;;;;;;;6.95;3.62;;;;;;;33.71;85.49;99548.58;1735460;80;21388;-64
2022/07/05 06:15:22;;;;;;;6.97;3.98;;;;;;;34.17;83.58;99542.03;1742616;81;21007;-65
2022/07/05 06:17:49;;;;;;;5.20;3.60;;;;;;;34.53;74.64;99546.30;1745811;80;21030;-65
2022/07/05 06:20:20;;;;;;;6.65;3.30;;;;;;;34.33;67.16;99542.07;1746059;82;20960;-65
2022/07/05 06:22:47;;;;;;;5.10;3.47;;;;;;;33.98;71.20;99540.77;1743415;80;21006;-66
2022/07/05 06:25:14;;;;;;;7.00;3.58;;;;;;;33.64;66.93;99541.66;1738667;81;20983;-65
2022/07/05 06:27:45;;;;;;;6.65;3.20;;;;;;;33.59;71.92;99542.11;1746811;80;21039;-67
2022/07/05 06:30:15;;;;;;;4.72;3.27;;;;;;;33.65;68.14;99538.22;1737684;82;20960;-66
2022/07/05 06:32:44;;;;;;;4.25;3.33;;;;;;;33.47;74.42;99542.75;1744649;80;21085;-66
2022/07/05 06:35:10;;;;;;;5.40;3.10;;;;;;;33.28;74.09;99542.88;1741628;81;20991;-66
2022/07/05 06:37:51;;;;;;;6.78;3.60;;;;;;;33.25;79.39;99540.92;1738468;81;21011;-65
2022/07/05 06:40:34;;;;;;;4.35;3.20;;;;;;;33.13;73.97;99537.28;1734931;82;20949;-66
2022/07/05 06:43:08;;;;;;;6.75;3.75;;;;;;;32.91;73.74;99541.67;1745033;81;21047;-65
2022/07/05 06:45:39;;;;;;;8.03;3.72;;;;;;;32.67;79.13;99537.19;1731602;81;20954;-65
2022/07/05 06:48:10;;;;;;;4.70;3.08;;;;;;;32.70;84.77;99539.18;1745078;80;21537;-65
2022/07/05 06:50:39;;;;;;;6.30;3.40;;;;;;;32.84;87.36;99541.14;1730370;81;20972;-66
2022/07/05 06:53:06;;;;;;;5.05;3.30;;;;;;;32.97;76.29;99539.34;1734241;80;21091;-67
2022/07/05 06:55:33;;;;;;;5.37;3.87;;;;;;;33.00;83.27;99543.33;1695674;83;20987;-67
2022/07/05 06:58:05;;;;;;;5.12;3.52;;;;;;;33.19;81.05;99553.13;1721875;82;21040;-66
2022/07/05 07:00:31;;;;;;;4.80;3.15;;;;;;;33.64;79.14;99541.66;1731290;82;21625;-64
2022/07/05 07:02:58;;;;;;;7.72;3.67;;;;;;;34.10;72.15;99542.15;1744484;81;21016;-66
2022/07/05 07:05:25;;;;;;;4.33;3.22;;;;;;;34.66;75.52;99542.19;1740790;81;20979;-68
2022/07/05 07:10:37;;;;;;;6.17;3.40;;;;;;;35.74;61.52;99540.70;1740875;82;21792;-63
2022/07/05 07:13:03;;;;;;;4.85;3.52;;;;;;;36.27;56.51;99532.73;1725811;81;21650;-64
2022/07/05 07:15:30;;;;;;;7.45;3.67;;;;;;;36.38;51.47;99536.84;1737900;82;20953;-66
2022/07/05 07:17:57;;;;;;;5.20;3.35;;;;;;;35.84;53.13;99528.28;1734754;80;21518;-65
2022/07/05 07:20:24;;;;;;;6.15;3.45;;;;;;;35.40;57.69;99541.17;1746559;82;21036;-65
2022/07/05 07:22:51;;;;;;;6.55;3.60;;;;;;;35.26;57.86;99539.33;1745484;81;21450;-65
2022/07/05 07:25:20;;;;;;;4.37;2.83;;;;;;;35.43;54.08;99530.98;1735092;82;21500;-65
2022/07/05 07:27:49;;;;;;;5.78;3.05;;;;;;;35.84;46.31;99535.98;1717348;82;21001;-64
2022/07/05 07:30:17;;;;;;;7.15;3.30;;;;;;;36.13;45.58;99530.33;1745375;81;20952;-65
2022/07/05 07:32:46;;;;;;;6.10;3.10;;;;;;;36.40;44.56;99528.67;1724574;81;20993;-65
2022/07/05 07:35:13;;;;;;;5.87;3.10;;;;;;;36.65;44.84;99528.54;1715631;83;21017;-66
2022/07/05 07:37:39;;;;;;;4.55;2.77;;;;;;;36.75;43.75;99525.98;1736005;82;20995;-65
2022/07/05 07:40:07;;;;;;;3.80;2.45;;;;;;;36.85;43.06;99524.22;1746436;82;21043;-65
2022/07/05 07:42:34;;;;;;;6.55;2.87;;;;;;;37.01;39.93;99523.93;1741536;81;21510;-66
2022/07/05 07:45:04;;;;;;;3.00;2.50;;;;;;;36.81;40.11;99527.80;1746959;80;21568;-65
2022/07/05 07:47:34;;;;;;;6.87;3.08;;;;;;;36.41;41.13;99522.38;1728125;82;21064;-65
2022/07/05 07:50:01;;;;;;;6.28;2.22;;;;;;;36.40;41.21;99528.67;1717199;81;21077;-65
2022/07/05 07:52:30;;;;;;;6.28;2.52;;;;;;;36.59;39.19;99529.74;1717296;82;21030;-65
2022/07/05 07:54:57;;;;;;;8.73;2.80;;;;;;;36.80;39.31;99518.34;1706584;83;21553;-67
2022/07/05 07:57:24;;;;;;;5.45;2.72;;;;;;;36.80;40.49;99513.46;1728906;82;21024;-65
2022/07/05 07:59:50;;;;;;;3.87;2.52;;;;;;;36.86;41.66;99517.93;1746796;80;21094;-65
2022/07/05 08:02:20;;;;;;;5.12;2.62;;;;;;;36.94;38.73;99505.11;1728917;81;21036;-66
2022/07/05 08:04:45;;;;;;;4.22;2.42;;;;;;;37.03;39.22;99515.16;1735758;81;21005;-66
2022/07/05 08:07:11;;;;;;;4.30;2.58;;;;;;;36.94;38.87;99509.98;1746020;81;20973;-65
2022/07/05 08:09:38;;;;;;;6.40;3.10;;;;;;;36.76;39.89;99512.78;1730815;81;21644;-65
2022/07/05 08:12:07;;;;;;;7.40;2.98;;;;;;;36.96;40.27;99505.43;1739271;81;21040;-66
2022/07/05 08:14:34;;;;;;;4.80;2.80;;;;;;;37.14;39.20;99501.41;1760156;80;21008;-65
2022/07/05 08:17:00;;;;;;;5.30;2.98;;;;;;;37.00;36.71;99498.22;1759704;81;20954;-65
2022/07/05 08:22:11;;;;;;;3.02;2.30;;;;;;;37.01;36.77;99504.87;1731684;81;20989;-65
2022/07/05 08:24:41;;;;;;;4.53;2.47;;;;;;;36.41;38.08;99495.45;1725309;81;21602;-65
2022/07/05 08:27:08;;;;;;;4.50;2.30;;;;;;;36.47;35.99;99502.14;1735084;81;21486;-64
2022/07/05 08:29:35;;;;;;;4.95;2.83;;;;;;;36.85;35.50;99497.89;1752907;80;21524;-65
2022/07/05 08:32:02;;;;;;;6.85;2.90;;;;;;;37.16;35.35;99499.54;1752915;81;20967;-65
2022/07/05 08:34:29;;;;;;;7.28;2.33;;;;;;;36.70;35.37;99499.01;1732395;81;21027;-66
2022/07/05 08:36:55;;;;;;;4.35;2.60;;;;;;;36.59;37.00;99494.92;1750939;81;21489;-65
2022/07/05 08:39:22;;;;;;;3.52;2.37;;;;;;;36.85;36.63;99505.78;1757794;80;21664;-65
2022/07/05 08:41:50;;;;;;;4.70;2.50;;;;;;;37.34;34.24;99504.75;1746312;81;20972;-65
2022/07/05 08:44:19;;;;;;;6.95;2.75;;;;;;;37.68;33.64;99503.98;1757331;80;21090;-65
2022/07/05 08:46:46;;;;;;;5.70;2.55;;;;;;;37.75;32.52;99508.61;1751866;81;20979;-65
2022/07/05 08:49:13;;;;;;;6.87;5.25;;;;;;;37.11;32.52;99508.62;1760125;80;21010;-66
2022/07/05 08:51:41;;;;;;;4.62;3.30;;;;;;;36.79;36.65;99499.11;1757589;81;21339;-65
2022/07/05 08:54:11;;;;;;;5.28;2.75;;;;;;;36.81;38.27;99506.52;1759725;80;21102;-66
2022/07/05 08:56:46;;;;;;;3.80;2.45;;;;;;;37.00;37.39;99503.89;1760301;81;21482;-65
2022/07/05 08:59:13;;;;;;;6.28;2.70;;;;;;;37.21;35.90;99498.32;1750977;80;21565;-65
2022/07/05 09:01:40;;;;;;;5.50;2.67;;;;;;;37.42;34.58;99504.50;1752166;81;21497;-64
2022/07/05 09:04:09;;;;;;;5.08;2.85;;;;;;;37.47;35.33;99502.50;1749238;80;21030;-66
2022/07/05 09:06:38;;;;;;;5.58;2.50;;;;;;;37.44;35.40;99504.23;1724624;81;21014;-66
2022/07/05 09:09:06;;;;;;;5.72;2.70;;;;;;;37.25;34.53;99503.25;1753887;80;21579;-64
2022/07/05 09:11:40;;;;;;;4.28;3.10;;;;;;;36.96;33.47;99505.43;1748369;82;21000;-65
2022/07/05 09:14:21;;;;;;;7.85;2.58;;;;;;;36.47;33.11;99499.92;1723471;82;21024;-65
2022/07/05 09:16:48;;;;;;;4.78;3.37;;;;;;;35.73;33.14;99502.30;1731765;82;20993;-64
2022/07/05 09:19:14;;;;;;;5.83;3.30;;;;;;;35.17;35.04;99503.80;1754561;80;21118;-65
2022/07/05 09:21:42;;;;;;;5.97;3.50;;;;;;;34.74;36.69;99507.66;1746905;82;20974;-64
2022/07/05 09:24:09;;;;;;;6.47;3.17;;;;;;;34.06;37.87;99507.53;1697556;82;21576;-65
2022/07/05 09:26:43;;;;;;;6.53;3.60;;;;;;;33.51;39.49;99505.39;1731584;81;21270;-65
2022/07/05 09:29:19;;;;;;;3.33;3.00;;;;;;;33.23;42.21;99503.87;1746803;81;21606;-66
2022/07/05 09:31:49;;;;;;;5.03;3.02;;;;;;;33.07;44.08;99499.50;1752539;82;20959;-65
2022/07/05 09:34:17;;;;;;;4.55;3.60;;;;;;;32.89;45.41;99504.63;1742565;81;21569;-66
2022/07/05 09:37:01;;;;;;;4.92;3.22;;;;;;;32.64;45.02;99506.44;1750569;81;20930;-66
2022/07/05 09:39:38;;;;;;;9.78;3.40;;;;;;;32.50;45.27;99508.03;1753933;80;21034;-65
2022/07/05 09:42:23;;;;;;;5.95;3.10;;;;;;;32.45;46.31;99508.52;1756319;81;21311;-66
2022/07/05 09:44:54;;;;;;;6.60;3.20;;;;;;;32.57;47.08;99503.70;1742396;81;21026;-65
2022/07/05 09:47:23;;;;;;;4.17;3.10;;;;;;;32.79;47.93;99501.38;1738601;80;21404;-65
2022/07/05 09:49:52;;;;;;;4.62;3.20;;;;;;;33.06;45.63;99506.36;1744819;80;21447;-66
2022/07/05 09:52:31;;;;;;;5.22;3.30;;;;;;;33.30;45.16;99502.33;1754148;82;20974;-69
2022/07/05 09:55:11;;;;;;;4.33;3.02;;;;;;;33.57;49.09;99498.63;1753697;80;21570;-65
2022/07/05 09:57:40;;;;;;;5.67;3.25;;;;;;;33.87;46.96;99495.00;1752407;81;21028;-64
2022/07/05 10:00:18;;;;;;;6.62;3.30;;;;;;;33.99;45.89;99494.97;1743661;81;20983;-66
2022/07/05 10:03:00;;;;;;;6.28;3.00;;;;;;;34.04;51.49;99495.09;1753682;80;21022;-65
2022/07/05 10:05:26;;;;;;;3.98;2.95;;;;;;;34.16;46.67;99498.06;1740559;81;21427;-65
2022/07/05 10:07:54;;;;;;;4.37;3.00;;;;;;;34.13;46.77;99497.52;1717408;80;21492;-63
2022/07/05 10:10:27;;;;;;;7.62;3.70;;;;;;;34.12;45.25;99497.95;1734340;81;21007;-64
2022/07/05 10:12:59;;;;;;;6.28;3.12;;;;;;;33.95;41.76;99491.42;1744242;80;20999;-64
2022/07/05 10:15:29;;;;;;;5.58;3.35;;;;;;;33.73;44.04;99491.70;1748659;80;21055;-65
2022/07/05 10:18:08;;;;;;;7.30;3.37;;;;;;;33.70;44.58;99491.13;1740412;80;21017;-64
2022/07/05 10:20:43;;;;;;;4.95;3.12;;;;;;;33.49;45.02;99492.31;1746456;81;21043;-64
2022/07/05 10:23:16;;;;;;;6.12;3.35;;;;;;;33.39;46.49;99491.91;1733155;82;21046;-64
2022/07/05 10:25:48;;;;;;;4.97;3.30;;;;;;;33.09;46.17;99483.58;1742734;81;20969;-64
2022/07/05 10:28:18;;;;;;;4.53;3.12;;;;;;;32.80;45.42;99478.41;1744017;80;22031;-64
2022/07/05 10:30:54;;;;;;;6.47;3.70;;;;;;;32.41;47.55;99475.37;1679465;84;21023;-64
2022/07/05 10:33:24;;;;;;;6.17;3.20;;;;;;;32.22;47.05;99484.49;1699960;83;21075;-63
2022/07/05 10:35:48;;;;;;;5.33;4.40;;;;;;;32.20;45.73;99484.13;1700609;84;21098;-63
2022/07/05 10:38:14;;;;;;;8.90;6.80;;;;;;;32.36;47.75;99485.70;1745747;81;21576;-64
2022/07/05 10:40:41;;;;;;;124.55;111.10;;;;;;;32.40;44.70;99485.04;1746416;82;21550;-63
2022/07/05 10:43:07;;;;;;;13.75;12.30;;;;;;;32.36;45.18;99478.05;1730148;80;21051;-61
2022/07/05 10:45:36;;;;;;;6.10;3.80;;;;;;;32.50;51.04;99473.61;1706093;82;21019;-63
2022/07/05 10:48:17;;;;;;;5.42;3.47;;;;;;;32.73;48.00;99474.30;1726558;82;21052;-63
2022/07/05 10:51:00;;;;;;;5.03;3.40;;;;;;;32.87;47.21;99469.05;1740545;80;20999;-63
2022/07/05 10:53:32;;;;;;;6.15;3.20;;;;;;;32.97;44.17;99468.06;1744109;81;21531;-63
2022/07/05 10:56:07;;;;;;;8.43;3.37;;;;;;;33.03;42.70;99467.14;1749413;81;21009;-63
2022/07/05 10:58:45;;;;;;;3.33;2.80;;;;;;;33.06;41.48;99466.87;1745789;80;21618;-62
2022/07/05 11:01:28;;;;;;;5.37;3.10;;;;;;;32.73;41.84;99463.03;1739334;81;20995;-61
2022/07/05 11:04:19;;;;;;;7.35;3.00;;;;;;;32.54;45.93;99459.47;1750253;81;21105;-62
2022/07/05 11:06:46;;;;;;;3.75;2.83;;;;;;;32.73;42.88;99457.39;1753547;81;20947;-60
2022/07/05 11:09:15;;;;;;;3.40;2.72;;;;;;;32.91;39.82;99452.23;1756102;80;21026;-61
2022/07/05 11:11:49;;;;;;;4.28;2.85;;;;;;;33.00;40.53;99444.03;1753638;81;20975;-62
2022/07/05 11:14:29;;;;;;;5.25;3.10;;;;;;;33.17;39.44;99454.03;1730604;80;21113;-62
2022/07/05 11:17:22;;;;;;;4.78;2.67;;;;;;;33.27;37.34;99451.63;1749857;81;21573;-63
2022/07/05 11:20:07;;;;;;;4.55;2.95;;;;;;;33.26;38.81;99450.05;1754625;80;21633;-63
2022/07/05 11:22:38;;;;;;;4.62;2.75;;;;;;;33.38;41.58;99445.17;1747206;81;20969;-62
2022/07/05 11:25:06;;;;;;;4.50;2.98;;;;;;;33.60;39.77;99449.17;1745091;81;21597;-63
2022/07/05 11:27:34;;;;;;;3.70;2.60;;;;;;;33.77;40.41;99448.03;1727772;81;21030;-62
2022/07/05 11:30:01;;;;;;;6.58;2.60;;;;;;;33.85;39.43;99443.84;1741535;80;21047;-63
2022/07/05 11:32:35;;;;;;;3.58;2.83;;;;;;;33.82;39.85;99448.95;1763909;81;21404;-62
2022/07/05 11:35:20;;;;;;;5.05;2.95;;;;;;;33.80;41.34;99453.45;1751868;80;21015;-62
2022/07/05 11:38:05;;;;;;;5.60;2.98;;;;;;;33.71;43.69;99452.61;1736280;81;21001;-63
2022/07/05 11:40:34;;;;;;;6.00;3.05;;;;;;;33.47;44.24;99449.03;1725939;82;21518;-61
2022/07/05 11:43:02;;;;;;;4.90;3.33;;;;;;;33.16;45.19;99444.00;1754020;80;21106;-63
2022/07/05 11:45:30;;;;;;;4.87;3.12;;;;;;;33.07;48.35;99441.69;1753903;81;20992;-62